sensor_id;sensor_type;location;lat;lon;timestamp;temperature;humidity
59973;DHT22;55298;-36.624;-64.282;2023-02-15T00:00:06;26.20;27.10
59973;DHT22;55298;-36.624;-64.282;2023-02-15T00:02:37;26.20;26.40
59973;DHT22;55298;-36.624;-64.282;2023-02-15T00:05:05;26.20;27.20
59973;DHT22;55298;-36.624;-64.282;2023-02-15T00:07:33;26.10;26.90
59973;DHT22;55298;-36.624;-64.282;2023-02-15T00:10:03;26.10;27.40
59973;DHT22;55298;-36.624;-64.282;2023-02-15T00:12:32;26.10;27.70
59973;DHT22;55298;-36.624;-64.282;2023-02-15T00:15:01;26.10;28.10
59973;DHT22;55298;-36.624;-64.282;2023-02-15T00:17:29;26.00;27.90
59973;DHT22;55298;-36.624;-64.282;2023-02-15T00:19:58;26.00;27.60
59973;DHT22;55298;-36.624;-64.282;2023-02-15T00:22:26;25.90;28.70
59973;DHT22;55298;-36.624;-64.282;2023-02-15T00:24:57;25.90;28.50
59973;DHT22;55298;-36.624;-64.282;2023-02-15T00:27:25;25.80;27.60
59973;DHT22;55298;-36.624;-64.282;2023-02-15T00:29:53;25.80;27.80
59973;DHT22;55298;-36.624;-64.282;2023-02-15T00:32:21;25.80;28.20
59973;DHT22;55298;-36.624;-64.282;2023-02-15T00:34:50;25.80;27.90
59973;DHT22;55298;-36.624;-64.282;2023-02-15T00:37:18;25.70;28.40
59973;DHT22;55298;-36.624;-64.282;2023-02-15T00:39:47;25.60;28.70
59973;DHT22;55298;-36.624;-64.282;2023-02-15T00:42:17;25.60;27.90
59973;DHT22;55298;-36.624;-64.282;2023-02-15T00:44:46;25.60;29.40
59973;DHT22;55298;-36.624;-64.282;2023-02-15T00:47:15;25.50;29.20
59973;DHT22;55298;-36.624;-64.282;2023-02-15T00:49:44;25.50;30.00
59973;DHT22;55298;-36.624;-64.282;2023-02-15T00:52:13;25.50;30.00
59973;DHT22;55298;-36.624;-64.282;2023-02-15T00:54:41;25.40;29.90
59973;DHT22;55298;-36.624;-64.282;2023-02-15T00:57:09;25.40;30.20
59973;DHT22;55298;-36.624;-64.282;2023-02-15T00:59:37;25.30;30.30
59973;DHT22;55298;-36.624;-64.282;2023-02-15T01:02:05;25.30;30.00
59973;DHT22;55298;-36.624;-64.282;2023-02-15T01:04:33;25.20;29.50
59973;DHT22;55298;-36.624;-64.282;2023-02-15T01:07:03;25.20;29.20
59973;DHT22;55298;-36.624;-64.282;2023-02-15T01:09:31;25.10;30.90
59973;DHT22;55298;-36.624;-64.282;2023-02-15T01:12:00;25.10;31.70
59973;DHT22;55298;-36.624;-64.282;2023-02-15T01:14:28;25.00;30.70
59973;DHT22;55298;-36.624;-64.282;2023-02-15T01:16:56;25.00;29.50
59973;DHT22;55298;-36.624;-64.282;2023-02-15T01:19:25;24.90;31.10
59973;DHT22;55298;-36.624;-64.282;2023-02-15T01:21:53;24.90;32.30
59973;DHT22;55298;-36.624;-64.282;2023-02-15T01:24:21;24.90;32.60
59973;DHT22;55298;-36.624;-64.282;2023-02-15T01:26:49;24.80;31.00
59973;DHT22;55298;-36.624;-64.282;2023-02-15T01:29:17;24.80;32.40
59973;DHT22;55298;-36.624;-64.282;2023-02-15T01:31:45;24.70;32.50
59973;DHT22;55298;-36.624;-64.282;2023-02-15T01:34:13;24.70;32.30
59973;DHT22;55298;-36.624;-64.282;2023-02-15T01:36:41;24.70;32.50
59973;DHT22;55298;-36.624;-64.282;2023-02-15T01:39:09;24.50;31.70
59973;DHT22;55298;-36.624;-64.282;2023-02-15T01:41:38;24.40;31.60
59973;DHT22;55298;-36.624;-64.282;2023-02-15T01:46:53;24.20;31.20
59973;DHT22;55298;-36.624;-64.282;2023-02-15T01:49:23;24.10;30.80
59973;DHT22;55298;-36.624;-64.282;2023-02-15T01:51:55;24.10;32.60
59973;DHT22;55298;-36.624;-64.282;2023-02-15T01:54:31;24.00;32.50
59973;DHT22;55298;-36.624;-64.282;2023-02-15T01:57:05;23.90;32.60
59973;DHT22;55298;-36.624;-64.282;2023-02-15T01:59:36;23.90;32.70
59973;DHT22;55298;-36.624;-64.282;2023-02-15T02:02:07;23.80;32.20
59973;DHT22;55298;-36.624;-64.282;2023-02-15T02:04:41;23.90;33.20
59973;DHT22;55298;-36.624;-64.282;2023-02-15T02:07:13;23.80;33.40
59973;DHT22;55298;-36.624;-64.282;2023-02-15T02:09:44;23.80;33.70
59973;DHT22;55298;-36.624;-64.282;2023-02-15T02:12:14;23.70;34.00
59973;DHT22;55298;-36.624;-64.282;2023-02-15T02:14:47;23.70;34.30
59973;DHT22;55298;-36.624;-64.282;2023-02-15T02:23:23;23.50;34.20
59973;DHT22;55298;-36.624;-64.282;2023-02-15T02:26:18;23.40;34.80
59973;DHT22;55298;-36.624;-64.282;2023-02-15T02:29:19;23.40;35.30
59973;DHT22;55298;-36.624;-64.282;2023-02-15T02:32:07;23.30;35.30
59973;DHT22;55298;-36.624;-64.282;2023-02-15T02:37:48;23.30;34.50
59973;DHT22;55298;-36.624;-64.282;2023-02-15T02:40:35;23.30;35.10
59973;DHT22;55298;-36.624;-64.282;2023-02-15T02:43:28;23.20;34.60
59973;DHT22;55298;-36.624;-64.282;2023-02-15T02:48:34;23.20;35.60
59973;DHT22;55298;-36.624;-64.282;2023-02-15T02:51:05;23.20;35.60
59973;DHT22;55298;-36.624;-64.282;2023-02-15T02:53:34;23.20;35.20
59973;DHT22;55298;-36.624;-64.282;2023-02-15T02:56:18;23.30;35.10
59973;DHT22;55298;-36.624;-64.282;2023-02-15T02:58:55;23.20;34.60
59973;DHT22;55298;-36.624;-64.282;2023-02-15T03:01:29;23.20;34.50
59973;DHT22;55298;-36.624;-64.282;2023-02-15T03:04:06;23.20;34.70
59973;DHT22;55298;-36.624;-64.282;2023-02-15T03:09:31;23.10;34.90
59973;DHT22;55298;-36.624;-64.282;2023-02-15T03:12:11;23.10;35.40
59973;DHT22;55298;-36.624;-64.282;2023-02-15T03:14:52;23.00;35.60
59973;DHT22;55298;-36.624;-64.282;2023-02-15T03:17:22;23.00;35.30
59973;DHT22;55298;-36.624;-64.282;2023-02-15T03:19:53;22.90;35.60
59973;DHT22;55298;-36.624;-64.282;2023-02-15T03:22:28;22.90;36.50
59973;DHT22;55298;-36.624;-64.282;2023-02-15T03:25:11;22.80;36.20
59973;DHT22;55298;-36.624;-64.282;2023-02-15T03:27:49;22.80;36.00
59973;DHT22;55298;-36.624;-64.282;2023-02-15T03:30:20;22.70;36.30
59973;DHT22;55298;-36.624;-64.282;2023-02-15T03:32:50;22.70;36.50
59973;DHT22;55298;-36.624;-64.282;2023-02-15T03:35:23;22.60;37.40
59973;DHT22;55298;-36.624;-64.282;2023-02-15T03:38:00;22.60;37.30
59973;DHT22;55298;-36.624;-64.282;2023-02-15T03:40:40;22.60;36.60
59973;DHT22;55298;-36.624;-64.282;2023-02-15T03:46:22;22.50;38.20
59973;DHT22;55298;-36.624;-64.282;2023-02-15T03:49:02;22.40;37.40
59973;DHT22;55298;-36.624;-64.282;2023-02-15T03:51:35;22.40;36.90
59973;DHT22;55298;-36.624;-64.282;2023-02-15T03:54:21;22.40;36.80
59973;DHT22;55298;-36.624;-64.282;2023-02-15T03:57:00;22.40;36.90
59973;DHT22;55298;-36.624;-64.282;2023-02-15T03:59:38;22.30;37.40
59973;DHT22;55298;-36.624;-64.282;2023-02-15T04:02:21;22.40;36.90
59973;DHT22;55298;-36.624;-64.282;2023-02-15T04:04:52;22.30;37.30
59973;DHT22;55298;-36.624;-64.282;2023-02-15T04:07:20;22.40;37.00
59973;DHT22;55298;-36.624;-64.282;2023-02-15T04:09:50;22.40;37.00
59973;DHT22;55298;-36.624;-64.282;2023-02-15T04:12:28;22.40;37.40
59973;DHT22;55298;-36.624;-64.282;2023-02-15T04:14:57;22.40;37.30
59973;DHT22;55298;-36.624;-64.282;2023-02-15T04:17:37;22.50;37.40
59973;DHT22;55298;-36.624;-64.282;2023-02-15T04:20:05;22.40;37.30
59973;DHT22;55298;-36.624;-64.282;2023-02-15T04:22:43;22.40;37.90
59973;DHT22;55298;-36.624;-64.282;2023-02-15T04:25:20;22.40;37.50
59973;DHT22;55298;-36.624;-64.282;2023-02-15T04:27:51;22.40;37.20
59973;DHT22;55298;-36.624;-64.282;2023-02-15T04:30:22;22.40;38.00
59973;DHT22;55298;-36.624;-64.282;2023-02-15T04:32:52;22.30;37.90
59973;DHT22;55298;-36.624;-64.282;2023-02-15T04:35:23;22.30;38.30
59973;DHT22;55298;-36.624;-64.282;2023-02-15T04:37:52;22.30;38.30
59973;DHT22;55298;-36.624;-64.282;2023-02-15T04:40:22;22.30;37.90
59973;DHT22;55298;-36.624;-64.282;2023-02-15T04:42:50;22.20;38.00
59973;DHT22;55298;-36.624;-64.282;2023-02-15T04:45:19;22.30;38.50
59973;DHT22;55298;-36.624;-64.282;2023-02-15T04:47:48;22.20;38.40
59973;DHT22;55298;-36.624;-64.282;2023-02-15T04:50:16;22.10;38.90
59973;DHT22;55298;-36.624;-64.282;2023-02-15T04:52:44;22.10;39.70
59973;DHT22;55298;-36.624;-64.282;2023-02-15T04:55:13;22.00;39.90
59973;DHT22;55298;-36.624;-64.282;2023-02-15T04:57:41;21.90;40.10
59973;DHT22;55298;-36.624;-64.282;2023-02-15T05:00:09;21.80;40.20
59973;DHT22;55298;-36.624;-64.282;2023-02-15T05:02:38;21.80;39.80
59973;DHT22;55298;-36.624;-64.282;2023-02-15T05:05:06;21.70;40.70
59973;DHT22;55298;-36.624;-64.282;2023-02-15T05:07:37;21.70;41.10
59973;DHT22;55298;-36.624;-64.282;2023-02-15T05:10:06;21.60;42.10
59973;DHT22;55298;-36.624;-64.282;2023-02-15T05:12:36;21.40;42.00
59973;DHT22;55298;-36.624;-64.282;2023-02-15T05:15:04;21.30;42.70
59973;DHT22;55298;-36.624;-64.282;2023-02-15T05:17:33;21.20;43.30
59973;DHT22;55298;-36.624;-64.282;2023-02-15T05:20:01;21.10;43.50
59973;DHT22;55298;-36.624;-64.282;2023-02-15T05:22:30;21.00;43.50
59973;DHT22;55298;-36.624;-64.282;2023-02-15T05:24:59;20.90;44.10
59973;DHT22;55298;-36.624;-64.282;2023-02-15T05:27:36;20.80;44.10
59973;DHT22;55298;-36.624;-64.282;2023-02-15T05:30:13;20.80;43.80
59973;DHT22;55298;-36.624;-64.282;2023-02-15T05:32:42;20.70;43.70
59973;DHT22;55298;-36.624;-64.282;2023-02-15T05:35:14;20.60;43.90
59973;DHT22;55298;-36.624;-64.282;2023-02-15T05:37:42;20.60;43.20
59973;DHT22;55298;-36.624;-64.282;2023-02-15T05:40:12;20.50;43.00
59973;DHT22;55298;-36.624;-64.282;2023-02-15T05:42:40;20.50;43.60
59973;DHT22;55298;-36.624;-64.282;2023-02-15T05:45:09;20.40;43.70
59973;DHT22;55298;-36.624;-64.282;2023-02-15T05:47:37;20.40;44.00
59973;DHT22;55298;-36.624;-64.282;2023-02-15T05:50:05;20.30;43.50
59973;DHT22;55298;-36.624;-64.282;2023-02-15T05:52:35;20.30;43.80
59973;DHT22;55298;-36.624;-64.282;2023-02-15T05:55:04;20.20;44.30
59973;DHT22;55298;-36.624;-64.282;2023-02-15T05:57:35;20.20;44.20
59973;DHT22;55298;-36.624;-64.282;2023-02-15T06:00:04;20.20;44.00
59973;DHT22;55298;-36.624;-64.282;2023-02-15T06:02:36;20.20;44.30
59973;DHT22;55298;-36.624;-64.282;2023-02-15T06:05:05;20.20;44.10
59973;DHT22;55298;-36.624;-64.282;2023-02-15T06:07:34;20.20;43.80
59973;DHT22;55298;-36.624;-64.282;2023-02-15T06:10:04;20.20;43.80
59973;DHT22;55298;-36.624;-64.282;2023-02-15T06:12:33;20.20;44.70
59973;DHT22;55298;-36.624;-64.282;2023-02-15T06:15:01;20.00;45.50
59973;DHT22;55298;-36.624;-64.282;2023-02-15T06:17:29;20.10;44.70
59973;DHT22;55298;-36.624;-64.282;2023-02-15T06:19:57;20.00;44.80
59973;DHT22;55298;-36.624;-64.282;2023-02-15T06:22:25;20.00;45.40
59973;DHT22;55298;-36.624;-64.282;2023-02-15T06:24:55;19.90;44.60
59973;DHT22;55298;-36.624;-64.282;2023-02-15T06:27:23;19.90;45.10
59973;DHT22;55298;-36.624;-64.282;2023-02-15T06:29:52;19.80;44.60
59973;DHT22;55298;-36.624;-64.282;2023-02-15T06:32:20;19.90;44.50
59973;DHT22;55298;-36.624;-64.282;2023-02-15T06:34:48;19.80;45.20
59973;DHT22;55298;-36.624;-64.282;2023-02-15T06:37:18;19.80;45.40
59973;DHT22;55298;-36.624;-64.282;2023-02-15T06:39:47;19.70;45.30
59973;DHT22;55298;-36.624;-64.282;2023-02-15T06:42:15;19.70;45.60
59973;DHT22;55298;-36.624;-64.282;2023-02-15T06:44:45;19.70;45.70
59973;DHT22;55298;-36.624;-64.282;2023-02-15T06:47:13;19.70;45.70
59973;DHT22;55298;-36.624;-64.282;2023-02-15T06:49:41;19.70;45.60
59973;DHT22;55298;-36.624;-64.282;2023-02-15T06:52:09;19.70;45.20
59973;DHT22;55298;-36.624;-64.282;2023-02-15T06:54:38;19.70;44.90
59973;DHT22;55298;-36.624;-64.282;2023-02-15T06:57:07;19.70;44.40
59973;DHT22;55298;-36.624;-64.282;2023-02-15T06:59:36;19.70;44.40
59973;DHT22;55298;-36.624;-64.282;2023-02-15T07:02:05;19.80;44.90
59973;DHT22;55298;-36.624;-64.282;2023-02-15T07:04:34;19.70;44.80
59973;DHT22;55298;-36.624;-64.282;2023-02-15T07:07:03;19.70;45.20
59973;DHT22;55298;-36.624;-64.282;2023-02-15T07:09:31;19.70;45.20
59973;DHT22;55298;-36.624;-64.282;2023-02-15T07:11:59;19.60;44.90
59973;DHT22;55298;-36.624;-64.282;2023-02-15T07:14:36;19.60;44.80
59973;DHT22;55298;-36.624;-64.282;2023-02-15T07:17:05;19.60;44.80
59973;DHT22;55298;-36.624;-64.282;2023-02-15T07:19:32;19.50;44.80
59973;DHT22;55298;-36.624;-64.282;2023-02-15T07:22:00;19.50;44.60
59973;DHT22;55298;-36.624;-64.282;2023-02-15T07:24:30;19.50;44.80
59973;DHT22;55298;-36.624;-64.282;2023-02-15T07:26:59;19.50;44.20
59973;DHT22;55298;-36.624;-64.282;2023-02-15T07:29:28;19.50;43.80
59973;DHT22;55298;-36.624;-64.282;2023-02-15T07:31:56;19.40;43.90
59973;DHT22;55298;-36.624;-64.282;2023-02-15T07:34:24;19.50;44.20
59973;DHT22;55298;-36.624;-64.282;2023-02-15T07:36:52;19.40;43.80
59973;DHT22;55298;-36.624;-64.282;2023-02-15T07:39:20;19.40;44.20
59973;DHT22;55298;-36.624;-64.282;2023-02-15T07:41:48;19.40;44.20
59973;DHT22;55298;-36.624;-64.282;2023-02-15T07:44:16;19.30;44.50
59973;DHT22;55298;-36.624;-64.282;2023-02-15T07:46:44;19.20;44.60
59973;DHT22;55298;-36.624;-64.282;2023-02-15T07:49:13;19.10;44.70
59973;DHT22;55298;-36.624;-64.282;2023-02-15T07:51:43;19.10;44.40
59973;DHT22;55298;-36.624;-64.282;2023-02-15T07:54:12;19.00;44.80
59973;DHT22;55298;-36.624;-64.282;2023-02-15T07:56:40;19.00;44.40
59973;DHT22;55298;-36.624;-64.282;2023-02-15T07:59:09;18.90;45.10
59973;DHT22;55298;-36.624;-64.282;2023-02-15T08:01:38;19.00;44.90
59973;DHT22;55298;-36.624;-64.282;2023-02-15T08:04:07;18.90;45.20
59973;DHT22;55298;-36.624;-64.282;2023-02-15T08:06:38;18.90;44.90
59973;DHT22;55298;-36.624;-64.282;2023-02-15T08:09:08;18.90;46.50
59973;DHT22;55298;-36.624;-64.282;2023-02-15T08:11:37;18.80;46.20
59973;DHT22;55298;-36.624;-64.282;2023-02-15T08:14:14;18.80;46.50
59973;DHT22;55298;-36.624;-64.282;2023-02-15T08:16:45;18.70;46.10
59973;DHT22;55298;-36.624;-64.282;2023-02-15T08:19:23;18.70;46.10
59973;DHT22;55298;-36.624;-64.282;2023-02-15T08:21:53;18.50;46.20
59973;DHT22;55298;-36.624;-64.282;2023-02-15T08:24:25;18.50;45.10
59973;DHT22;55298;-36.624;-64.282;2023-02-15T08:26:55;18.50;45.10
59973;DHT22;55298;-36.624;-64.282;2023-02-15T08:29:26;18.50;45.40
59973;DHT22;55298;-36.624;-64.282;2023-02-15T08:32:02;18.50;45.30
59973;DHT22;55298;-36.624;-64.282;2023-02-15T08:34:34;18.50;45.00
59973;DHT22;55298;-36.624;-64.282;2023-02-15T08:37:04;18.60;45.00
59973;DHT22;55298;-36.624;-64.282;2023-02-15T08:39:32;18.60;45.10
59973;DHT22;55298;-36.624;-64.282;2023-02-15T08:42:01;18.60;44.90
59973;DHT22;55298;-36.624;-64.282;2023-02-15T08:44:30;18.70;44.30
59973;DHT22;55298;-36.624;-64.282;2023-02-15T08:46:58;18.70;44.70
59973;DHT22;55298;-36.624;-64.282;2023-02-15T08:49:30;18.70;44.20
59973;DHT22;55298;-36.624;-64.282;2023-02-15T08:51:59;18.80;43.90
59973;DHT22;55298;-36.624;-64.282;2023-02-15T08:54:27;18.80;44.50
59973;DHT22;55298;-36.624;-64.282;2023-02-15T08:56:55;18.90;44.70
59973;DHT22;55298;-36.624;-64.282;2023-02-15T08:59:23;18.90;44.70
59973;DHT22;55298;-36.624;-64.282;2023-02-15T09:01:54;18.90;44.90
59973;DHT22;55298;-36.624;-64.282;2023-02-15T09:04:23;18.90;44.60
59973;DHT22;55298;-36.624;-64.282;2023-02-15T09:06:52;18.90;44.80
59973;DHT22;55298;-36.624;-64.282;2023-02-15T09:09:20;19.00;44.90
59973;DHT22;55298;-36.624;-64.282;2023-02-15T09:11:51;19.00;44.70
59973;DHT22;55298;-36.624;-64.282;2023-02-15T09:14:20;19.00;44.50
59973;DHT22;55298;-36.624;-64.282;2023-02-15T09:16:52;19.00;44.00
59973;DHT22;55298;-36.624;-64.282;2023-02-15T09:19:22;19.10;44.20
59973;DHT22;55298;-36.624;-64.282;2023-02-15T09:21:50;19.00;44.60
59973;DHT22;55298;-36.624;-64.282;2023-02-15T09:24:19;19.10;44.20
59973;DHT22;55298;-36.624;-64.282;2023-02-15T09:26:48;19.10;44.30
59973;DHT22;55298;-36.624;-64.282;2023-02-15T09:29:18;19.00;44.10
59973;DHT22;55298;-36.624;-64.282;2023-02-15T09:31:49;19.10;44.70
59973;DHT22;55298;-36.624;-64.282;2023-02-15T09:34:21;19.00;44.10
59973;DHT22;55298;-36.624;-64.282;2023-02-15T09:36:50;19.00;44.90
59973;DHT22;55298;-36.624;-64.282;2023-02-15T09:39:21;19.10;44.40
59973;DHT22;55298;-36.624;-64.282;2023-02-15T09:45:17;19.00;44.30
59973;DHT22;55298;-36.624;-64.282;2023-02-15T09:48:13;19.10;44.30
59973;DHT22;55298;-36.624;-64.282;2023-02-15T09:54:00;19.00;44.90
59973;DHT22;55298;-36.624;-64.282;2023-02-15T09:56:45;19.00;45.10
59973;DHT22;55298;-36.624;-64.282;2023-02-15T10:02:20;19.10;45.00
59973;DHT22;55298;-36.624;-64.282;2023-02-15T10:05:12;19.00;44.50
59973;DHT22;55298;-36.624;-64.282;2023-02-15T10:08:16;19.10;44.30
59973;DHT22;55298;-36.624;-64.282;2023-02-15T10:10:56;19.10;44.40
59973;DHT22;55298;-36.624;-64.282;2023-02-15T10:14:08;19.20;44.80
59973;DHT22;55298;-36.624;-64.282;2023-02-15T10:22:30;19.50;44.90
59973;DHT22;55298;-36.624;-64.282;2023-02-15T10:25:24;19.60;45.10
59973;DHT22;55298;-36.624;-64.282;2023-02-15T10:28:04;19.70;45.10
59973;DHT22;55298;-36.624;-64.282;2023-02-15T10:30:50;19.90;45.30
59973;DHT22;55298;-36.624;-64.282;2023-02-15T10:33:40;20.10;45.00
59973;DHT22;55298;-36.624;-64.282;2023-02-15T10:36:26;20.20;44.80
59973;DHT22;55298;-36.624;-64.282;2023-02-15T10:39:22;20.40;45.10
59973;DHT22;55298;-36.624;-64.282;2023-02-15T10:45:11;20.50;44.40
59973;DHT22;55298;-36.624;-64.282;2023-02-15T10:48:06;20.60;44.40
59973;DHT22;55298;-36.624;-64.282;2023-02-15T10:50:52;20.80;43.70
59973;DHT22;55298;-36.624;-64.282;2023-02-15T10:59:35;21.20;42.90
59973;DHT22;55298;-36.624;-64.282;2023-02-15T11:02:31;21.40;42.50
59973;DHT22;55298;-36.624;-64.282;2023-02-15T11:08:07;21.90;41.40
59973;DHT22;55298;-36.624;-64.282;2023-02-15T11:10:51;22.80;40.40
59973;DHT22;55298;-36.624;-64.282;2023-02-15T11:13:27;23.20;39.10
59973;DHT22;55298;-36.624;-64.282;2023-02-15T11:16:02;23.20;38.70
59973;DHT22;55298;-36.624;-64.282;2023-02-15T11:18:37;23.20;38.70
59973;DHT22;55298;-36.624;-64.282;2023-02-15T11:21:20;23.60;38.70
59973;DHT22;55298;-36.624;-64.282;2023-02-15T11:23:56;24.00;37.90
59973;DHT22;55298;-36.624;-64.282;2023-02-15T11:26:34;24.70;36.80
59973;DHT22;55298;-36.624;-64.282;2023-02-15T11:32:14;25.10;36.00
59973;DHT22;55298;-36.624;-64.282;2023-02-15T11:35:04;25.10;35.70
59973;DHT22;55298;-36.624;-64.282;2023-02-15T11:37:40;24.90;35.80
59973;DHT22;55298;-36.624;-64.282;2023-02-15T11:40:23;24.50;36.10
59973;DHT22;55298;-36.624;-64.282;2023-02-15T11:43:00;24.20;36.90
59973;DHT22;55298;-36.624;-64.282;2023-02-15T11:45:33;23.90;37.50
59973;DHT22;55298;-36.624;-64.282;2023-02-15T11:48:11;23.80;37.90
59973;DHT22;55298;-36.624;-64.282;2023-02-15T11:50:41;23.70;38.50
59973;DHT22;55298;-36.624;-64.282;2023-02-15T11:53:13;23.60;38.30
59973;DHT22;55298;-36.624;-64.282;2023-02-15T11:55:45;23.60;38.50
59973;DHT22;55298;-36.624;-64.282;2023-02-15T12:01:14;23.30;38.90
59973;DHT22;55298;-36.624;-64.282;2023-02-15T12:03:58;23.40;39.20
59973;DHT22;55298;-36.624;-64.282;2023-02-15T12:06:31;23.60;39.20
59973;DHT22;55298;-36.624;-64.282;2023-02-15T12:12:32;23.90;38.80
59973;DHT22;55298;-36.624;-64.282;2023-02-15T12:15:04;23.80;38.50
59973;DHT22;55298;-36.624;-64.282;2023-02-15T12:17:40;23.90;38.50
59973;DHT22;55298;-36.624;-64.282;2023-02-15T12:20:31;24.20;38.40
59973;DHT22;55298;-36.624;-64.282;2023-02-15T12:23:08;24.50;37.80
59973;DHT22;55298;-36.624;-64.282;2023-02-15T12:25:50;24.70;37.10
59973;DHT22;55298;-36.624;-64.282;2023-02-15T12:31:18;24.80;36.50
59973;DHT22;55298;-36.624;-64.282;2023-02-15T12:33:47;24.90;36.20
59973;DHT22;55298;-36.624;-64.282;2023-02-15T12:36:21;25.00;35.70
59973;DHT22;55298;-36.624;-64.282;2023-02-15T12:39:16;25.10;35.60
59973;DHT22;55298;-36.624;-64.282;2023-02-15T12:42:04;25.20;35.80
59973;DHT22;55298;-36.624;-64.282;2023-02-15T12:44:37;25.10;35.60
59973;DHT22;55298;-36.624;-64.282;2023-02-15T12:50:21;25.60;35.20
59973;DHT22;55298;-36.624;-64.282;2023-02-15T12:53:18;25.80;35.20
59973;DHT22;55298;-36.624;-64.282;2023-02-15T12:55:59;26.40;34.50
59973;DHT22;55298;-36.624;-64.282;2023-02-15T12:58:30;26.90;34.00
59973;DHT22;55298;-36.624;-64.282;2023-02-15T13:01:18;27.20;33.10
59973;DHT22;55298;-36.624;-64.282;2023-02-15T13:04:04;27.50;33.30
59973;DHT22;55298;-36.624;-64.282;2023-02-15T13:06:48;27.40;32.00
59973;DHT22;55298;-36.624;-64.282;2023-02-15T13:12:10;27.20;31.70
59973;DHT22;55298;-36.624;-64.282;2023-02-15T13:14:47;27.10;32.70
59973;DHT22;55298;-36.624;-64.282;2023-02-15T13:17:39;27.50;32.90
59973;DHT22;55298;-36.624;-64.282;2023-02-15T13:20:19;28.50;31.80
59973;DHT22;55298;-36.624;-64.282;2023-02-15T13:22:57;29.60;30.40
59973;DHT22;55298;-36.624;-64.282;2023-02-15T13:25:35;30.60;29.70
59973;DHT22;55298;-36.624;-64.282;2023-02-15T13:28:10;31.40;27.90
59973;DHT22;55298;-36.624;-64.282;2023-02-15T13:30:45;31.60;27.50
59973;DHT22;55298;-36.624;-64.282;2023-02-15T13:33:27;31.50;27.70
59973;DHT22;55298;-36.624;-64.282;2023-02-15T13:36:05;31.40;27.50
59973;DHT22;55298;-36.624;-64.282;2023-02-15T13:38:47;31.40;28.20
59973;DHT22;55298;-36.624;-64.282;2023-02-15T13:41:27;31.20;28.10
59973;DHT22;55298;-36.624;-64.282;2023-02-15T13:44:11;31.10;28.00
59973;DHT22;55298;-36.624;-64.282;2023-02-15T13:50:26;31.40;28.20
59973;DHT22;55298;-36.624;-64.282;2023-02-15T13:55:57;32.30;27.20
59973;DHT22;55298;-36.624;-64.282;2023-02-15T14:01:46;33.10;27.20
59973;DHT22;55298;-36.624;-64.282;2023-02-15T14:04:53;33.60;26.40
59973;DHT22;55298;-36.624;-64.282;2023-02-15T14:22:35;35.40;23.50
59973;DHT22;55298;-36.624;-64.282;2023-02-15T14:30:52;34.00;23.90
59973;DHT22;55298;-36.624;-64.282;2023-02-15T14:33:40;33.30;24.40
59973;DHT22;55298;-36.624;-64.282;2023-02-15T14:36:13;32.90;25.20
59973;DHT22;55298;-36.624;-64.282;2023-02-15T14:39:02;32.90;25.50
59973;DHT22;55298;-36.624;-64.282;2023-02-15T14:41:59;33.30;25.30
59973;DHT22;55298;-36.624;-64.282;2023-02-15T14:44:37;33.70;25.20
59973;DHT22;55298;-36.624;-64.282;2023-02-15T14:47:19;33.90;24.80
59973;DHT22;55298;-36.624;-64.282;2023-02-15T14:49:49;34.30;24.60
59973;DHT22;55298;-36.624;-64.282;2023-02-15T14:52:18;34.40;24.20
59973;DHT22;55298;-36.624;-64.282;2023-02-15T14:54:55;34.80;24.10
59973;DHT22;55298;-36.624;-64.282;2023-02-15T14:57:27;34.90;22.70
59973;DHT22;55298;-36.624;-64.282;2023-02-15T14:59:59;34.60;22.60
59973;DHT22;55298;-36.624;-64.282;2023-02-15T15:02:45;34.70;23.00
59973;DHT22;55298;-36.624;-64.282;2023-02-15T15:05:22;34.90;22.80
59973;DHT22;55298;-36.624;-64.282;2023-02-15T15:07:54;34.90;22.40
59973;DHT22;55298;-36.624;-64.282;2023-02-15T15:10:37;34.70;23.00
59973;DHT22;55298;-36.624;-64.282;2023-02-15T15:15:55;35.30;23.30
59973;DHT22;55298;-36.624;-64.282;2023-02-15T15:18:46;35.10;22.30
59973;DHT22;55298;-36.624;-64.282;2023-02-15T15:29:48;35.10;22.20
59973;DHT22;55298;-36.624;-64.282;2023-02-15T15:32:21;34.50;22.10
59973;DHT22;55298;-36.624;-64.282;2023-02-15T15:35:05;34.20;22.90
59973;DHT22;55298;-36.624;-64.282;2023-02-15T15:40:57;33.90;23.50
59973;DHT22;55298;-36.624;-64.282;2023-02-15T15:46:41;33.70;23.10
59973;DHT22;55298;-36.624;-64.282;2023-02-15T15:49:17;33.90;23.20
59973;DHT22;55298;-36.624;-64.282;2023-02-15T15:51:49;34.10;22.80
59973;DHT22;55298;-36.624;-64.282;2023-02-15T15:54:24;34.40;23.30
59973;DHT22;55298;-36.624;-64.282;2023-02-15T15:56:57;34.40;22.20
59973;DHT22;55298;-36.624;-64.282;2023-02-15T15:59:31;34.00;22.30
59973;DHT22;55298;-36.624;-64.282;2023-02-15T16:02:11;33.60;22.50
59973;DHT22;55298;-36.624;-64.282;2023-02-15T16:04:42;33.30;22.80
59973;DHT22;55298;-36.624;-64.282;2023-02-15T16:07:25;33.20;23.60
59973;DHT22;55298;-36.624;-64.282;2023-02-15T16:10:04;33.10;23.20
59973;DHT22;55298;-36.624;-64.282;2023-02-15T16:12:35;33.00;23.30
59973;DHT22;55298;-36.624;-64.282;2023-02-15T16:15:16;32.90;23.30
59973;DHT22;55298;-36.624;-64.282;2023-02-15T16:17:47;32.80;23.60
59973;DHT22;55298;-36.624;-64.282;2023-02-15T16:20:23;32.70;23.30
59973;DHT22;55298;-36.624;-64.282;2023-02-15T16:23:04;32.70;23.40
59973;DHT22;55298;-36.624;-64.282;2023-02-15T16:25:52;32.70;23.50
59973;DHT22;55298;-36.624;-64.282;2023-02-15T16:28:22;32.70;23.60
59973;DHT22;55298;-36.624;-64.282;2023-02-15T16:31:10;32.70;24.00
59973;DHT22;55298;-36.624;-64.282;2023-02-15T16:33:41;32.70;23.70
59973;DHT22;55298;-36.624;-64.282;2023-02-15T16:36:25;32.60;24.20
59973;DHT22;55298;-36.624;-64.282;2023-02-15T16:39:09;32.50;23.70
59973;DHT22;55298;-36.624;-64.282;2023-02-15T16:41:40;32.70;23.50
59973;DHT22;55298;-36.624;-64.282;2023-02-15T16:44:17;32.60;23.60
59973;DHT22;55298;-36.624;-64.282;2023-02-15T16:46:47;32.50;23.80
59973;DHT22;55298;-36.624;-64.282;2023-02-15T16:49:24;32.40;23.60
59973;DHT22;55298;-36.624;-64.282;2023-02-15T16:52:06;32.30;23.80
59973;DHT22;55298;-36.624;-64.282;2023-02-15T16:54:36;32.30;24.50
59973;DHT22;55298;-36.624;-64.282;2023-02-15T16:57:05;32.30;23.90
59973;DHT22;55298;-36.624;-64.282;2023-02-15T16:59:48;32.30;24.10
59973;DHT22;55298;-36.624;-64.282;2023-02-15T17:02:26;32.30;24.40
59973;DHT22;55298;-36.624;-64.282;2023-02-15T17:05:16;32.40;24.10
59973;DHT22;55298;-36.624;-64.282;2023-02-15T17:08:02;32.40;24.10
59973;DHT22;55298;-36.624;-64.282;2023-02-15T17:10:38;32.30;23.90
59973;DHT22;55298;-36.624;-64.282;2023-02-15T17:13:15;32.30;24.00
59973;DHT22;55298;-36.624;-64.282;2023-02-15T17:18:23;32.30;24.30
59973;DHT22;55298;-36.624;-64.282;2023-02-15T17:20:55;32.30;23.80
59973;DHT22;55298;-36.624;-64.282;2023-02-15T17:23:35;32.30;23.50
59973;DHT22;55298;-36.624;-64.282;2023-02-15T17:26:21;32.10;24.10